sensor_id;sensor_type;location;lat;lon;timestamp;P1;durP1;ratioP1;P2;durP2;ratioP2
78799;SDS011;68148;55.328;86.106;2023-07-28T00:02:23;48.28;;;31.17;;
78799;SDS011;68148;55.328;86.106;2023-07-28T00:04:50;64.07;;;35.30;;
78799;SDS011;68148;55.328;86.106;2023-07-28T00:07:15;51.10;;;33.13;;
78799;SDS011;68148;55.328;86.106;2023-07-28T00:09:52;42.25;;;23.80;;
78799;SDS011;68148;55.328;86.106;2023-07-28T00:12:18;38.20;;;21.65;;
78799;SDS011;68148;55.328;86.106;2023-07-28T00:14:45;40.60;;;23.08;;
78799;SDS011;68148;55.328;86.106;2023-07-28T00:17:11;34.45;;;21.95;;
78799;SDS011;68148;55.328;86.106;2023-07-28T00:19:36;38.08;;;21.63;;
78799;SDS011;68148;55.328;86.106;2023-07-28T00:22:02;27.17;;;17.13;;
78799;SDS011;68148;55.328;86.106;2023-07-28T00:24:30;33.65;;;18.17;;
78799;SDS011;68148;55.328;86.106;2023-07-28T00:26:55;36.78;;;19.23;;
78799;SDS011;68148;55.328;86.106;2023-07-28T00:29:21;34.88;;;18.20;;
78799;SDS011;68148;55.328;86.106;2023-07-28T00:31:47;37.40;;;18.25;;
78799;SDS011;68148;55.328;86.106;2023-07-28T00:34:15;23.77;;;15.68;;
78799;SDS011;68148;55.328;86.106;2023-07-28T00:36:41;31.98;;;17.88;;
78799;SDS011;68148;55.328;86.106;2023-07-28T00:39:07;31.13;;;18.33;;
78799;SDS011;68148;55.328;86.106;2023-07-28T00:41:33;33.78;;;17.45;;
78799;SDS011;68148;55.328;86.106;2023-07-28T00:43:58;33.40;;;17.02;;
78799;SDS011;68148;55.328;86.106;2023-07-28T00:46:26;32.20;;;16.63;;
78799;SDS011;68148;55.328;86.106;2023-07-28T00:48:51;41.60;;;17.35;;
78799;SDS011;68148;55.328;86.106;2023-07-28T00:51:18;35.50;;;16.30;;
78799;SDS011;68148;55.328;86.106;2023-07-28T00:53:44;30.17;;;16.40;;
78799;SDS011;68148;55.328;86.106;2023-07-28T00:56:11;34.90;;;16.38;;
78799;SDS011;68148;55.328;86.106;2023-07-28T00:58:37;35.55;;;16.00;;
78799;SDS011;68148;55.328;86.106;2023-07-28T01:01:03;32.75;;;16.10;;
78799;SDS011;68148;55.328;86.106;2023-07-28T01:03:29;28.63;;;16.05;;
78799;SDS011;68148;55.328;86.106;2023-07-28T01:08:33;30.33;;;14.15;;
78799;SDS011;68148;55.328;86.106;2023-07-28T01:11:04;32.50;;;16.60;;
78799;SDS011;68148;55.328;86.106;2023-07-28T01:13:29;31.15;;;16.08;;
78799;SDS011;68148;55.328;86.106;2023-07-28T01:15:55;31.48;;;16.45;;
78799;SDS011;68148;55.328;86.106;2023-07-28T01:18:21;31.95;;;15.43;;
78799;SDS011;68148;55.328;86.106;2023-07-28T01:20:47;31.58;;;15.30;;
78799;SDS011;68148;55.328;86.106;2023-07-28T01:26:32;33.38;;;16.27;;
78799;SDS011;68148;55.328;86.106;2023-07-28T01:28:56;25.88;;;13.48;;
78799;SDS011;68148;55.328;86.106;2023-07-28T01:31:22;29.52;;;15.07;;
78799;SDS011;68148;55.328;86.106;2023-07-28T01:33:48;34.13;;;15.68;;
78799;SDS011;68148;55.328;86.106;2023-07-28T01:36:14;28.42;;;14.27;;
78799;SDS011;68148;55.328;86.106;2023-07-28T01:38:40;24.00;;;13.35;;
78799;SDS011;68148;55.328;86.106;2023-07-28T01:41:06;27.65;;;13.77;;
78799;SDS011;68148;55.328;86.106;2023-07-28T01:43:32;27.42;;;13.52;;
78799;SDS011;68148;55.328;86.106;2023-07-28T01:45:58;33.13;;;12.45;;
78799;SDS011;68148;55.328;86.106;2023-07-28T01:48:29;22.77;;;7.85;;
78799;SDS011;68148;55.328;86.106;2023-07-28T01:50:55;22.50;;;9.38;;
78799;SDS011;68148;55.328;86.106;2023-07-28T01:53:21;21.73;;;5.97;;
78799;SDS011;68148;55.328;86.106;2023-07-28T01:55:47;22.27;;;5.70;;
78799;SDS011;68148;55.328;86.106;2023-07-28T01:58:13;13.60;;;5.53;;
78799;SDS011;68148;55.328;86.106;2023-07-28T02:00:38;10.73;;;5.25;;
78799;SDS011;68148;55.328;86.106;2023-07-28T02:03:07;14.95;;;4.93;;
78799;SDS011;68148;55.328;86.106;2023-07-28T02:05:33;14.27;;;5.28;;
78799;SDS011;68148;55.328;86.106;2023-07-28T02:07:58;17.38;;;5.97;;
78799;SDS011;68148;55.328;86.106;2023-07-28T02:10:26;25.50;;;6.25;;
78799;SDS011;68148;55.328;86.106;2023-07-28T02:12:55;13.55;;;5.05;;
78799;SDS011;68148;55.328;86.106;2023-07-28T02:15:21;14.68;;;5.28;;
78799;SDS011;68148;55.328;86.106;2023-07-28T02:17:48;20.90;;;5.38;;
78799;SDS011;68148;55.328;86.106;2023-07-28T02:20:17;23.45;;;5.32;;
78799;SDS011;68148;55.328;86.106;2023-07-28T02:22:43;21.88;;;4.82;;
78799;SDS011;68148;55.328;86.106;2023-07-28T02:25:10;13.73;;;5.40;;
78799;SDS011;68148;55.328;86.106;2023-07-28T02:27:36;10.13;;;5.15;;
78799;SDS011;68148;55.328;86.106;2023-07-28T02:30:03;15.20;;;6.00;;
78799;SDS011;68148;55.328;86.106;2023-07-28T02:32:31;19.85;;;5.75;;
78799;SDS011;68148;55.328;86.106;2023-07-28T02:34:57;17.63;;;5.32;;
78799;SDS011;68148;55.328;86.106;2023-07-28T02:37:24;14.65;;;5.43;;
78799;SDS011;68148;55.328;86.106;2023-07-28T02:39:53;15.07;;;6.15;;
78799;SDS011;68148;55.328;86.106;2023-07-28T02:42:19;12.73;;;5.38;;
78799;SDS011;68148;55.328;86.106;2023-07-28T02:47:11;13.95;;;4.50;;
78799;SDS011;68148;55.328;86.106;2023-07-28T02:49:37;16.42;;;5.00;;
78799;SDS011;68148;55.328;86.106;2023-07-28T02:52:03;13.88;;;5.70;;
78799;SDS011;68148;55.328;86.106;2023-07-28T02:54:29;12.93;;;4.60;;
78799;SDS011;68148;55.328;86.106;2023-07-28T02:56:56;16.10;;;6.00;;
78799;SDS011;68148;55.328;86.106;2023-07-28T02:59:24;12.18;;;5.68;;
78799;SDS011;68148;55.328;86.106;2023-07-28T03:01:50;13.63;;;5.32;;
78799;SDS011;68148;55.328;86.106;2023-07-28T03:04:16;11.48;;;5.10;;
78799;SDS011;68148;55.328;86.106;2023-07-28T03:06:42;15.02;;;5.88;;
78799;SDS011;68148;55.328;86.106;2023-07-28T03:09:07;10.57;;;5.15;;
78799;SDS011;68148;55.328;86.106;2023-07-28T03:11:33;15.35;;;5.50;;
78799;SDS011;68148;55.328;86.106;2023-07-28T03:14:00;9.40;;;5.40;;
78799;SDS011;68148;55.328;86.106;2023-07-28T03:16:26;12.95;;;5.22;;
78799;SDS011;68148;55.328;86.106;2023-07-28T03:18:51;17.08;;;4.97;;
78799;SDS011;68148;55.328;86.106;2023-07-28T03:21:17;17.77;;;4.72;;
78799;SDS011;68148;55.328;86.106;2023-07-28T03:23:43;10.63;;;4.93;;
78799;SDS011;68148;55.328;86.106;2023-07-28T03:26:09;14.13;;;5.05;;
78799;SDS011;68148;55.328;86.106;2023-07-28T03:28:35;11.07;;;4.25;;
78799;SDS011;68148;55.328;86.106;2023-07-28T03:31:01;10.38;;;4.30;;
78799;SDS011;68148;55.328;86.106;2023-07-28T03:33:27;8.18;;;4.03;;
78799;SDS011;68148;55.328;86.106;2023-07-28T03:35:52;5.90;;;4.00;;
78799;SDS011;68148;55.328;86.106;2023-07-28T03:38:18;4.68;;;3.35;;
78799;SDS011;68148;55.328;86.106;2023-07-28T03:40:44;8.00;;;3.50;;
78799;SDS011;68148;55.328;86.106;2023-07-28T03:45:37;9.10;;;3.75;;
78799;SDS011;68148;55.328;86.106;2023-07-28T03:48:02;5.47;;;2.30;;
78799;SDS011;68148;55.328;86.106;2023-07-28T03:50:28;8.98;;;4.43;;
78799;SDS011;68148;55.328;86.106;2023-07-28T03:52:54;7.32;;;4.03;;
78799;SDS011;68148;55.328;86.106;2023-07-28T03:55:20;6.22;;;4.20;;
78799;SDS011;68148;55.328;86.106;2023-07-28T03:57:45;9.77;;;4.00;;
78799;SDS011;68148;55.328;86.106;2023-07-28T04:00:11;6.28;;;3.72;;
78799;SDS011;68148;55.328;86.106;2023-07-28T04:02:37;15.43;;;4.22;;
78799;SDS011;68148;55.328;86.106;2023-07-28T04:05:03;10.95;;;4.63;;
78799;SDS011;68148;55.328;86.106;2023-07-28T04:07:29;9.57;;;4.40;;
78799;SDS011;68148;55.328;86.106;2023-07-28T04:09:55;7.80;;;4.50;;
78799;SDS011;68148;55.328;86.106;2023-07-28T04:12:21;5.10;;;4.20;;
78799;SDS011;68148;55.328;86.106;2023-07-28T04:14:47;15.57;;;10.48;;
78799;SDS011;68148;55.328;86.106;2023-07-28T04:17:13;6.15;;;3.92;;
78799;SDS011;68148;55.328;86.106;2023-07-28T04:19:39;11.73;;;4.25;;
78799;SDS011;68148;55.328;86.106;2023-07-28T04:22:05;6.20;;;4.18;;
78799;SDS011;68148;55.328;86.106;2023-07-28T04:24:31;10.30;;;4.35;;
78799;SDS011;68148;55.328;86.106;2023-07-28T04:26:57;8.65;;;3.53;;
78799;SDS011;68148;55.328;86.106;2023-07-28T04:29:23;10.25;;;3.88;;
78799;SDS011;68148;55.328;86.106;2023-07-28T04:31:48;6.20;;;3.72;;
78799;SDS011;68148;55.328;86.106;2023-07-28T04:34:14;6.00;;;4.07;;
78799;SDS011;68148;55.328;86.106;2023-07-28T04:36:40;6.95;;;3.70;;
78799;SDS011;68148;55.328;86.106;2023-07-28T04:39:06;11.05;;;4.10;;
78799;SDS011;68148;55.328;86.106;2023-07-28T04:41:31;7.47;;;4.07;;
78799;SDS011;68148;55.328;86.106;2023-07-28T04:43:57;5.93;;;3.85;;
78799;SDS011;68148;55.328;86.106;2023-07-28T04:46:23;7.28;;;3.65;;
78799;SDS011;68148;55.328;86.106;2023-07-28T04:48:49;14.85;;;3.97;;
78799;SDS011;68148;55.328;86.106;2023-07-28T04:51:14;7.03;;;3.60;;
78799;SDS011;68148;55.328;86.106;2023-07-28T04:53:40;11.48;;;4.07;;
78799;SDS011;68148;55.328;86.106;2023-07-28T04:56:08;7.35;;;3.80;;
78799;SDS011;68148;55.328;86.106;2023-07-28T04:58:34;13.40;;;4.22;;
78799;SDS011;68148;55.328;86.106;2023-07-28T05:01:00;9.20;;;3.85;;
78799;SDS011;68148;55.328;86.106;2023-07-28T05:03:26;22.90;;;3.95;;
78799;SDS011;68148;55.328;86.106;2023-07-28T05:05:52;3.85;;;3.20;;
78799;SDS011;68148;55.328;86.106;2023-07-28T05:08:18;7.30;;;3.65;;
78799;SDS011;68148;55.328;86.106;2023-07-28T05:10:44;12.43;;;3.72;;
78799;SDS011;68148;55.328;86.106;2023-07-28T05:13:09;9.18;;;4.32;;
78799;SDS011;68148;55.328;86.106;2023-07-28T05:15:35;9.93;;;3.92;;
78799;SDS011;68148;55.328;86.106;2023-07-28T05:18:01;6.95;;;3.67;;
78799;SDS011;68148;55.328;86.106;2023-07-28T05:20:28;10.48;;;3.78;;
78799;SDS011;68148;55.328;86.106;2023-07-28T05:22:54;9.50;;;3.78;;
78799;SDS011;68148;55.328;86.106;2023-07-28T05:25:19;10.30;;;3.83;;
78799;SDS011;68148;55.328;86.106;2023-07-28T05:27:45;13.13;;;4.03;;
78799;SDS011;68148;55.328;86.106;2023-07-28T05:30:11;10.32;;;4.35;;
78799;SDS011;68148;55.328;86.106;2023-07-28T05:32:36;4.80;;;4.18;;
78799;SDS011;68148;55.328;86.106;2023-07-28T05:35:02;9.77;;;3.63;;
78799;SDS011;68148;55.328;86.106;2023-07-28T05:37:28;12.27;;;3.88;;
78799;SDS011;68148;55.328;86.106;2023-07-28T05:39:54;6.15;;;3.45;;
78799;SDS011;68148;55.328;86.106;2023-07-28T05:42:25;7.22;;;3.17;;
78799;SDS011;68148;55.328;86.106;2023-07-28T05:44:53;9.57;;;3.42;;
78799;SDS011;68148;55.328;86.106;2023-07-28T05:47:18;5.57;;;3.10;;
78799;SDS011;68148;55.328;86.106;2023-07-28T05:49:44;6.57;;;3.47;;
78799;SDS011;68148;55.328;86.106;2023-07-28T05:52:10;9.02;;;3.75;;
78799;SDS011;68148;55.328;86.106;2023-07-28T05:54:36;11.52;;;4.40;;
78799;SDS011;68148;55.328;86.106;2023-07-28T05:57:02;6.22;;;4.10;;
78799;SDS011;68148;55.328;86.106;2023-07-28T05:59:28;14.18;;;3.67;;
78799;SDS011;68148;55.328;86.106;2023-07-28T06:01:53;8.43;;;3.47;;
78799;SDS011;68148;55.328;86.106;2023-07-28T06:04:19;9.18;;;4.40;;
78799;SDS011;68148;55.328;86.106;2023-07-28T06:06:45;6.80;;;3.72;;
78799;SDS011;68148;55.328;86.106;2023-07-28T06:09:10;8.82;;;3.20;;
78799;SDS011;68148;55.328;86.106;2023-07-28T06:11:36;6.65;;;3.53;;
78799;SDS011;68148;55.328;86.106;2023-07-28T06:14:02;8.07;;;3.80;;
78799;SDS011;68148;55.328;86.106;2023-07-28T06:16:28;7.22;;;3.83;;
78799;SDS011;68148;55.328;86.106;2023-07-28T06:18:55;6.30;;;3.50;;
78799;SDS011;68148;55.328;86.106;2023-07-28T06:21:21;8.65;;;3.42;;
78799;SDS011;68148;55.328;86.106;2023-07-28T06:23:47;9.15;;;3.80;;
78799;SDS011;68148;55.328;86.106;2023-07-28T06:26:12;6.97;;;3.97;;
78799;SDS011;68148;55.328;86.106;2023-07-28T06:28:38;6.35;;;3.40;;
78799;SDS011;68148;55.328;86.106;2023-07-28T06:31:04;5.65;;;2.70;;
78799;SDS011;68148;55.328;86.106;2023-07-28T06:33:29;5.18;;;3.53;;
78799;SDS011;68148;55.328;86.106;2023-07-28T06:35:55;7.18;;;3.40;;
78799;SDS011;68148;55.328;86.106;2023-07-28T06:38:21;6.80;;;4.10;;
78799;SDS011;68148;55.328;86.106;2023-07-28T06:40:47;12.30;;;3.45;;
78799;SDS011;68148;55.328;86.106;2023-07-28T06:43:13;4.80;;;3.42;;
78799;SDS011;68148;55.328;86.106;2023-07-28T06:45:39;11.75;;;3.40;;
78799;SDS011;68148;55.328;86.106;2023-07-28T06:48:04;5.70;;;3.33;;
78799;SDS011;68148;55.328;86.106;2023-07-28T06:50:30;5.05;;;3.60;;
78799;SDS011;68148;55.328;86.106;2023-07-28T06:52:56;6.18;;;3.53;;
78799;SDS011;68148;55.328;86.106;2023-07-28T06:55:22;7.45;;;3.47;;
78799;SDS011;68148;55.328;86.106;2023-07-28T06:57:48;7.20;;;3.40;;
78799;SDS011;68148;55.328;86.106;2023-07-28T07:00:14;5.90;;;2.83;;
78799;SDS011;68148;55.328;86.106;2023-07-28T07:02:45;4.22;;;3.28;;
78799;SDS011;68148;55.328;86.106;2023-07-28T07:05:11;6.60;;;3.83;;
78799;SDS011;68148;55.328;86.106;2023-07-28T07:07:38;12.23;;;4.18;;
78799;SDS011;68148;55.328;86.106;2023-07-28T07:10:04;6.78;;;3.22;;
78799;SDS011;68148;55.328;86.106;2023-07-28T07:12:32;8.48;;;2.95;;
78799;SDS011;68148;55.328;86.106;2023-07-28T07:14:57;12.32;;;3.55;;
78799;SDS011;68148;55.328;86.106;2023-07-28T07:17:23;12.75;;;2.92;;
78799;SDS011;68148;55.328;86.106;2023-07-28T07:19:49;6.13;;;3.45;;
78799;SDS011;68148;55.328;86.106;2023-07-28T07:22:14;5.97;;;2.92;;
78799;SDS011;68148;55.328;86.106;2023-07-28T07:24:40;5.25;;;2.72;;
78799;SDS011;68148;55.328;86.106;2023-07-28T07:27:06;4.70;;;2.97;;
78799;SDS011;68148;55.328;86.106;2023-07-28T07:29:32;7.18;;;3.05;;
78799;SDS011;68148;55.328;86.106;2023-07-28T07:31:58;6.32;;;3.45;;
78799;SDS011;68148;55.328;86.106;2023-07-28T07:34:23;5.40;;;3.53;;
78799;SDS011;68148;55.328;86.106;2023-07-28T07:36:49;7.18;;;3.30;;
78799;SDS011;68148;55.328;86.106;2023-07-28T07:39:15;11.75;;;3.53;;
78799;SDS011;68148;55.328;86.106;2023-07-28T07:41:41;8.10;;;3.20;;
78799;SDS011;68148;55.328;86.106;2023-07-28T07:44:08;5.28;;;3.08;;
78799;SDS011;68148;55.328;86.106;2023-07-28T07:46:34;8.38;;;2.50;;
78799;SDS011;68148;55.328;86.106;2023-07-28T07:49:00;4.95;;;2.70;;
78799;SDS011;68148;55.328;86.106;2023-07-28T07:51:26;5.03;;;2.83;;
78799;SDS011;68148;55.328;86.106;2023-07-28T07:53:51;4.15;;;2.33;;
78799;SDS011;68148;55.328;86.106;2023-07-28T07:56:17;5.15;;;2.50;;
78799;SDS011;68148;55.328;86.106;2023-07-28T07:58:43;4.95;;;1.95;;
78799;SDS011;68148;55.328;86.106;2023-07-28T08:01:09;8.07;;;2.42;;
78799;SDS011;68148;55.328;86.106;2023-07-28T08:03:36;7.68;;;2.40;;
78799;SDS011;68148;55.328;86.106;2023-07-28T08:08:27;13.40;;;4.05;;
78799;SDS011;68148;55.328;86.106;2023-07-28T08:10:54;10.93;;;3.60;;
78799;SDS011;68148;55.328;86.106;2023-07-28T08:13:20;11.65;;;4.05;;
78799;SDS011;68148;55.328;86.106;2023-07-28T08:15:46;6.13;;;4.45;;
78799;SDS011;68148;55.328;86.106;2023-07-28T08:18:14;11.90;;;4.85;;
78799;SDS011;68148;55.328;86.106;2023-07-28T08:20:40;9.45;;;4.38;;
78799;SDS011;68148;55.328;86.106;2023-07-28T08:23:06;7.65;;;5.13;;
78799;SDS011;68148;55.328;86.106;2023-07-28T08:25:33;10.35;;;5.13;;
78799;SDS011;68148;55.328;86.106;2023-07-28T08:27:59;14.63;;;6.10;;
78799;SDS011;68148;55.328;86.106;2023-07-28T08:30:24;17.92;;;5.43;;
78799;SDS011;68148;55.328;86.106;2023-07-28T08:35:17;9.55;;;3.05;;
78799;SDS011;68148;55.328;86.106;2023-07-28T08:37:43;8.18;;;3.75;;
78799;SDS011;68148;55.328;86.106;2023-07-28T08:40:09;18.15;;;4.03;;
78799;SDS011;68148;55.328;86.106;2023-07-28T08:42:37;9.70;;;3.15;;
78799;SDS011;68148;55.328;86.106;2023-07-28T08:45:04;7.28;;;2.85;;
78799;SDS011;68148;55.328;86.106;2023-07-28T08:49:57;7.38;;;2.88;;
78799;SDS011;68148;55.328;86.106;2023-07-28T08:52:23;5.93;;;3.38;;
78799;SDS011;68148;55.328;86.106;2023-07-28T08:54:50;5.35;;;3.20;;
78799;SDS011;68148;55.328;86.106;2023-07-28T08:57:16;10.30;;;6.93;;
78799;SDS011;68148;55.328;86.106;2023-07-28T08:59:42;14.65;;;6.25;;
78799;SDS011;68148;55.328;86.106;2023-07-28T09:02:09;11.07;;;5.93;;
78799;SDS011;68148;55.328;86.106;2023-07-28T09:04:35;9.30;;;5.07;;
78799;SDS011;68148;55.328;86.106;2023-07-28T09:07:02;11.18;;;6.50;;
78799;SDS011;68148;55.328;86.106;2023-07-28T09:09:31;26.00;;;7.60;;
78799;SDS011;68148;55.328;86.106;2023-07-28T09:11:58;21.70;;;6.78;;
78799;SDS011;68148;55.328;86.106;2023-07-28T09:14:25;20.73;;;6.15;;
78799;SDS011;68148;55.328;86.106;2023-07-28T09:16:51;19.38;;;4.32;;
78799;SDS011;68148;55.328;86.106;2023-07-28T09:21:45;36.80;;;15.50;;
78799;SDS011;68148;55.328;86.106;2023-07-28T09:24:11;16.77;;;9.45;;
78799;SDS011;68148;55.328;86.106;2023-07-28T09:29:12;30.60;;;14.32;;
78799;SDS011;68148;55.328;86.106;2023-07-28T09:31:46;25.15;;;10.40;;
78799;SDS011;68148;55.328;86.106;2023-07-28T09:34:13;21.15;;;10.10;;
78799;SDS011;68148;55.328;86.106;2023-07-28T09:36:49;31.58;;;13.13;;
78799;SDS011;68148;55.328;86.106;2023-07-28T09:39:15;26.88;;;14.30;;
78799;SDS011;68148;55.328;86.106;2023-07-28T09:41:43;21.15;;;11.90;;
78799;SDS011;68148;55.328;86.106;2023-07-28T09:44:11;14.27;;;8.75;;
78799;SDS011;68148;55.328;86.106;2023-07-28T09:46:40;12.18;;;7.38;;
78799;SDS011;68148;55.328;86.106;2023-07-28T09:49:21;12.90;;;7.18;;
78799;SDS011;68148;55.328;86.106;2023-07-28T09:52:00;12.30;;;6.22;;
78799;SDS011;68148;55.328;86.106;2023-07-28T09:54:34;18.63;;;5.45;;
78799;SDS011;68148;55.328;86.106;2023-07-28T09:57:11;11.43;;;4.78;;
78799;SDS011;68148;55.328;86.106;2023-07-28T09:59:39;18.35;;;4.60;;
78799;SDS011;68148;55.328;86.106;2023-07-28T10:04:32;16.02;;;5.82;;
78799;SDS011;68148;55.328;86.106;2023-07-28T10:06:59;33.25;;;6.47;;
78799;SDS011;68148;55.328;86.106;2023-07-28T10:09:27;13.63;;;6.80;;
78799;SDS011;68148;55.328;86.106;2023-07-28T10:11:54;19.52;;;4.47;;
78799;SDS011;68148;55.328;86.106;2023-07-28T10:14:27;17.08;;;3.90;;
78799;SDS011;68148;55.328;86.106;2023-07-28T10:16:59;13.73;;;5.15;;
78799;SDS011;68148;55.328;86.106;2023-07-28T10:19:26;9.38;;;3.85;;
78799;SDS011;68148;55.328;86.106;2023-07-28T10:29:59;6.57;;;3.33;;
78799;SDS011;68148;55.328;86.106;2023-07-28T10:32:27;12.70;;;3.50;;
78799;SDS011;68148;55.328;86.106;2023-07-28T10:35:02;15.50;;;3.60;;
78799;SDS011;68148;55.328;86.106;2023-07-28T10:42:58;11.57;;;3.78;;
78799;SDS011;68148;55.328;86.106;2023-07-28T10:45:24;8.60;;;4.13;;
78799;SDS011;68148;55.328;86.106;2023-07-28T10:47:51;10.35;;;4.03;;
78799;SDS011;68148;55.328;86.106;2023-07-28T10:50:18;9.07;;;3.10;;
78799;SDS011;68148;55.328;86.106;2023-07-28T10:52:44;13.43;;;3.90;;
78799;SDS011;68148;55.328;86.106;2023-07-28T10:55:18;6.53;;;3.63;;
78799;SDS011;68148;55.328;86.106;2023-07-28T10:57:45;7.43;;;3.38;;
78799;SDS011;68148;55.328;86.106;2023-07-28T11:00:12;9.05;;;3.65;;
78799;SDS011;68148;55.328;86.106;2023-07-28T11:02:50;15.18;;;4.63;;
78799;SDS011;68148;55.328;86.106;2023-07-28T11:05:21;9.63;;;4.20;;
78799;SDS011;68148;55.328;86.106;2023-07-28T11:07:49;6.53;;;3.60;;
78799;SDS011;68148;55.328;86.106;2023-07-28T11:10:15;7.03;;;4.10;;
78799;SDS011;68148;55.328;86.106;2023-07-28T11:12:42;6.50;;;4.18;;
78799;SDS011;68148;55.328;86.106;2023-07-28T11:15:09;8.60;;;4.13;;
78799;SDS011;68148;55.328;86.106;2023-07-28T11:17:40;8.30;;;4.97;;
78799;SDS011;68148;55.328;86.106;2023-07-28T11:20:26;8.27;;;4.40;;
78799;SDS011;68148;55.328;86.106;2023-07-28T11:23:00;9.98;;;3.90;;
78799;SDS011;68148;55.328;86.106;2023-07-28T11:25:28;6.28;;;3.63;;
78799;SDS011;68148;55.328;86.106;2023-07-28T11:30:20;8.93;;;4.07;;
78799;SDS011;68148;55.328;86.106;2023-07-28T11:32:48;10.70;;;4.88;;
78799;SDS011;68148;55.328;86.106;2023-07-28T11:35:17;8.52;;;3.83;;
78799;SDS011;68148;55.328;86.106;2023-07-28T11:37:46;10.25;;;3.75;;
78799;SDS011;68148;55.328;86.106;2023-07-28T11:40:14;9.00;;;4.30;;
78799;SDS011;68148;55.328;86.106;2023-07-28T11:42:45;7.43;;;3.83;;
78799;SDS011;68148;55.328;86.106;2023-07-28T11:45:13;8.18;;;4.18;;
78799;SDS011;68148;55.328;86.106;2023-07-28T11:47:52;16.42;;;5.07;;
78799;SDS011;68148;55.328;86.106;2023-07-28T11:50:26;11.82;;;4.10;;
78799;SDS011;68148;55.328;86.106;2023-07-28T11:52:53;8.95;;;4.10;;
78799;SDS011;68148;55.328;86.106;2023-07-28T11:55:20;7.55;;;3.88;;
78799;SDS011;68148;55.328;86.106;2023-07-28T11:57:46;14.02;;;4.85;;
78799;SDS011;68148;55.328;86.106;2023-07-28T12:00:12;13.80;;;4.65;;
78799;SDS011;68148;55.328;86.106;2023-07-28T12:02:38;11.27;;;5.07;;
78799;SDS011;68148;55.328;86.106;2023-07-28T12:05:11;12.55;;;4.65;;
78799;SDS011;68148;55.328;86.106;2023-07-28T12:07:38;10.70;;;4.70;;
78799;SDS011;68148;55.328;86.106;2023-07-28T12:10:04;16.25;;;5.28;;
78799;SDS011;68148;55.328;86.106;2023-07-28T12:12:31;12.18;;;4.65;;
78799;SDS011;68148;55.328;86.106;2023-07-28T12:15:17;18.13;;;5.53;;
78799;SDS011;68148;55.328;86.106;2023-07-28T12:18:02;17.52;;;5.25;;
78799;SDS011;68148;55.328;86.106;2023-07-28T12:20:36;13.68;;;5.55;;
78799;SDS011;68148;55.328;86.106;2023-07-28T12:23:03;9.10;;;4.35;;
78799;SDS011;68148;55.328;86.106;2023-07-28T12:25:30;15.10;;;5.05;;
78799;SDS011;68148;55.328;86.106;2023-07-28T12:27:57;15.75;;;5.57;;
78799;SDS011;68148;55.328;86.106;2023-07-28T12:30:23;15.18;;;5.38;;
78799;SDS011;68148;55.328;86.106;2023-07-28T12:32:51;19.50;;;5.07;;
78799;SDS011;68148;55.328;86.106;2023-07-28T12:35:17;11.63;;;6.05;;
78799;SDS011;68148;55.328;86.106;2023-07-28T12:37:43;13.00;;;5.60;;
78799;SDS011;68148;55.328;86.106;2023-07-28T12:40:09;9.18;;;5.10;;
78799;SDS011;68148;55.328;86.106;2023-07-28T12:42:35;13.02;;;4.53;;
78799;SDS011;68148;55.328;86.106;2023-07-28T12:45:01;14.50;;;4.93;;
78799;SDS011;68148;55.328;86.106;2023-07-28T12:47:27;11.45;;;4.25;;
78799;SDS011;68148;55.328;86.106;2023-07-28T12:49:52;12.57;;;5.05;;
78799;SDS011;68148;55.328;86.106;2023-07-28T12:52:19;18.63;;;5.72;;
78799;SDS011;68148;55.328;86.106;2023-07-28T12:54:44;26.55;;;5.18;;
78799;SDS011;68148;55.328;86.106;2023-07-28T12:57:10;16.45;;;4.72;;
78799;SDS011;68148;55.328;86.106;2023-07-28T12:59:36;15.50;;;4.85;;
78799;SDS011;68148;55.328;86.106;2023-07-28T13:02:02;17.92;;;6.43;;
78799;SDS011;68148;55.328;86.106;2023-07-28T13:04:28;13.90;;;5.03;;
78799;SDS011;68148;55.328;86.106;2023-07-28T13:06:54;13.80;;;6.30;;
78799;SDS011;68148;55.328;86.106;2023-07-28T13:09:19;19.75;;;8.07;;
78799;SDS011;68148;55.328;86.106;2023-07-28T13:11:45;32.25;;;12.00;;
78799;SDS011;68148;55.328;86.106;2023-07-28T13:14:11;23.25;;;10.15;;
78799;SDS011;68148;55.328;86.106;2023-07-28T13:16:37;10.23;;;4.50;;
78799;SDS011;68148;55.328;86.106;2023-07-28T13:19:03;7.70;;;4.35;;
78799;SDS011;68148;55.328;86.106;2023-07-28T13:21:29;14.65;;;4.88;;
78799;SDS011;68148;55.328;86.106;2023-07-28T13:23:55;9.02;;;4.43;;
78799;SDS011;68148;55.328;86.106;2023-07-28T13:26:21;13.75;;;4.32;;
78799;SDS011;68148;55.328;86.106;2023-07-28T13:28:47;9.48;;;3.85;;
78799;SDS011;68148;55.328;86.106;2023-07-28T13:31:15;7.35;;;4.72;;
78799;SDS011;68148;55.328;86.106;2023-07-28T13:33:42;14.27;;;4.18;;
78799;SDS011;68148;55.328;86.106;2023-07-28T13:36:08;12.70;;;4.85;;
78799;SDS011;68148;55.328;86.106;2023-07-28T13:38:35;16.95;;;3.95;;
78799;SDS011;68148;55.328;86.106;2023-07-28T13:41:03;16.73;;;4.57;;
78799;SDS011;68148;55.328;86.106;2023-07-28T13:43:30;9.57;;;4.88;;
78799;SDS011;68148;55.328;86.106;2023-07-28T13:45:56;10.25;;;5.50;;
78799;SDS011;68148;55.328;86.106;2023-07-28T13:48:22;15.25;;;6.22;;
78799;SDS011;68148;55.328;86.106;2023-07-28T13:50:48;23.92;;;10.38;;
78799;SDS011;68148;55.328;86.106;2023-07-28T13:53:23;22.40;;;7.75;;
78799;SDS011;68148;55.328;86.106;2023-07-28T13:55:49;16.50;;;6.75;;
78799;SDS011;68148;55.328;86.106;2023-07-28T13:58:16;17.30;;;7.35;;
78799;SDS011;68148;55.328;86.106;2023-07-28T14:00:42;14.55;;;7.07;;
78799;SDS011;68148;55.328;86.106;2023-07-28T14:03:08;14.60;;;5.63;;
78799;SDS011;68148;55.328;86.106;2023-07-28T14:05:34;15.85;;;6.03;;
78799;SDS011;68148;55.328;86.106;2023-07-28T14:07:59;9.85;;;4.75;;
78799;SDS011;68148;55.328;86.106;2023-07-28T14:10:25;11.35;;;5.28;;
78799;SDS011;68148;55.328;86.106;2023-07-28T14:12:51;11.23;;;4.00;;
78799;SDS011;68148;55.328;86.106;2023-07-28T14:15:17;8.13;;;5.28;;
78799;SDS011;68148;55.328;86.106;2023-07-28T14:17:43;6.97;;;4.30;;
78799;SDS011;68148;55.328;86.106;2023-07-28T14:20:09;12.82;;;4.95;;
78799;SDS011;68148;55.328;86.106;2023-07-28T14:22:35;10.60;;;6.22;;
78799;SDS011;68148;55.328;86.106;2023-07-28T14:25:04;12.73;;;6.43;;
78799;SDS011;68148;55.328;86.106;2023-07-28T14:27:30;11.80;;;7.32;;
78799;SDS011;68148;55.328;86.106;2023-07-28T14:29:56;12.23;;;5.72;;
78799;SDS011;68148;55.328;86.106;2023-07-28T14:32:21;18.70;;;6.35;;
78799;SDS011;68148;55.328;86.106;2023-07-28T14:34:47;13.45;;;7.22;;
78799;SDS011;68148;55.328;86.106;2023-07-28T14:37:13;16.60;;;6.07;;
78799;SDS011;68148;55.328;86.106;2023-07-28T14:39:39;13.77;;;6.40;;
78799;SDS011;68148;55.328;86.106;2023-07-28T14:42:05;18.38;;;6.30;;
78799;SDS011;68148;55.328;86.106;2023-07-28T14:44:33;9.75;;;5.53;;
78799;SDS011;68148;55.328;86.106;2023-07-28T14:47:01;15.50;;;5.10;;
78799;SDS011;68148;55.328;86.106;2023-07-28T14:49:28;20.45;;;7.18;;
78799;SDS011;68148;55.328;86.106;2023-07-28T14:51:54;10.75;;;6.18;;
78799;SDS011;68148;55.328;86.106;2023-07-28T14:54:20;14.43;;;6.22;;
78799;SDS011;68148;55.328;86.106;2023-07-28T14:56:50;14.10;;;6.65;;
78799;SDS011;68148;55.328;86.106;2023-07-28T14:59:17;15.73;;;7.47;;
78799;SDS011;68148;55.328;86.106;2023-07-28T15:01:43;19.00;;;7.68;;
78799;SDS011;68148;55.328;86.106;2023-07-28T15:04:09;11.93;;;6.90;;